sensor_id;sensor_type;location;lat;lon;timestamp;P1;durP1;ratioP1;P2;durP2;ratioP2
3193;SDS011;1608;50.860;13.466;2023-04-08T00:00:42;13.43;;;10.20;;
3193;SDS011;1608;50.860;13.466;2023-04-08T00:03:09;11.50;;;9.50;;
3193;SDS011;1608;50.860;13.466;2023-04-08T00:05:38;13.50;;;9.17;;
3193;SDS011;1608;50.860;13.466;2023-04-08T00:08:04;9.30;;;7.40;;
3193;SDS011;1608;50.860;13.466;2023-04-08T00:10:31;14.47;;;8.70;;
3193;SDS011;1608;50.860;13.466;2023-04-08T00:12:58;14.33;;;9.40;;
3193;SDS011;1608;50.860;13.466;2023-04-08T00:15:25;11.47;;;8.33;;
3193;SDS011;1608;50.860;13.466;2023-04-08T00:17:52;14.30;;;9.30;;
3193;SDS011;1608;50.860;13.466;2023-04-08T00:20:19;14.07;;;8.87;;
3193;SDS011;1608;50.860;13.466;2023-04-08T00:22:47;14.20;;;9.20;;
3193;SDS011;1608;50.860;13.466;2023-04-08T00:25:15;11.77;;;8.37;;
3193;SDS011;1608;50.860;13.466;2023-04-08T00:27:42;11.30;;;8.00;;
3193;SDS011;1608;50.860;13.466;2023-04-08T00:30:09;12.30;;;7.63;;
3193;SDS011;1608;50.860;13.466;2023-04-08T00:32:36;15.97;;;9.97;;
3193;SDS011;1608;50.860;13.466;2023-04-08T00:35:03;12.07;;;8.20;;
3193;SDS011;1608;50.860;13.466;2023-04-08T00:37:30;11.80;;;8.63;;
3193;SDS011;1608;50.860;13.466;2023-04-08T00:39:58;14.17;;;7.77;;
3193;SDS011;1608;50.860;13.466;2023-04-08T00:42:25;16.50;;;8.07;;
3193;SDS011;1608;50.860;13.466;2023-04-08T00:44:54;13.20;;;7.73;;
3193;SDS011;1608;50.860;13.466;2023-04-08T00:47:21;20.70;;;12.47;;
3193;SDS011;1608;50.860;13.466;2023-04-08T00:49:48;18.97;;;10.87;;
3193;SDS011;1608;50.860;13.466;2023-04-08T00:52:15;18.43;;;9.90;;
3193;SDS011;1608;50.860;13.466;2023-04-08T00:54:42;28.37;;;14.43;;
3193;SDS011;1608;50.860;13.466;2023-04-08T00:57:10;20.27;;;9.60;;
3193;SDS011;1608;50.860;13.466;2023-04-08T00:59:37;14.87;;;8.53;;
3193;SDS011;1608;50.860;13.466;2023-04-08T01:02:06;12.97;;;8.10;;
3193;SDS011;1608;50.860;13.466;2023-04-08T01:04:41;16.57;;;9.53;;
3193;SDS011;1608;50.860;13.466;2023-04-08T01:07:16;21.10;;;13.20;;
3193;SDS011;1608;50.860;13.466;2023-04-08T01:09:46;12.57;;;6.73;;
3193;SDS011;1608;50.860;13.466;2023-04-08T01:12:19;10.47;;;5.97;;
3193;SDS011;1608;50.860;13.466;2023-04-08T01:14:51;15.43;;;8.17;;
3193;SDS011;1608;50.860;13.466;2023-04-08T01:17:22;12.10;;;6.37;;
3193;SDS011;1608;50.860;13.466;2023-04-08T01:19:49;10.23;;;5.20;;
3193;SDS011;1608;50.860;13.466;2023-04-08T01:22:18;11.33;;;7.17;;
3193;SDS011;1608;50.860;13.466;2023-04-08T01:24:54;9.13;;;5.53;;
3193;SDS011;1608;50.860;13.466;2023-04-08T01:27:27;7.67;;;5.70;;
3193;SDS011;1608;50.860;13.466;2023-04-08T01:29:57;7.40;;;5.00;;
3193;SDS011;1608;50.860;13.466;2023-04-08T01:32:25;11.40;;;6.00;;
3193;SDS011;1608;50.860;13.466;2023-04-08T01:34:53;11.33;;;6.60;;
3193;SDS011;1608;50.860;13.466;2023-04-08T01:37:21;13.43;;;6.80;;
3193;SDS011;1608;50.860;13.466;2023-04-08T01:39:50;14.13;;;8.50;;
3193;SDS011;1608;50.860;13.466;2023-04-08T01:42:19;12.67;;;7.20;;
3193;SDS011;1608;50.860;13.466;2023-04-08T01:44:48;7.67;;;5.40;;
3193;SDS011;1608;50.860;13.466;2023-04-08T01:47:16;10.50;;;6.17;;
3193;SDS011;1608;50.860;13.466;2023-04-08T01:49:43;15.80;;;7.50;;
3193;SDS011;1608;50.860;13.466;2023-04-08T01:52:10;14.57;;;7.60;;
3193;SDS011;1608;50.860;13.466;2023-04-08T01:54:39;11.67;;;7.53;;
3193;SDS011;1608;50.860;13.466;2023-04-08T01:57:06;10.80;;;6.13;;
3193;SDS011;1608;50.860;13.466;2023-04-08T01:59:37;11.90;;;6.60;;
3193;SDS011;1608;50.860;13.466;2023-04-08T02:02:07;14.53;;;6.27;;
3193;SDS011;1608;50.860;13.466;2023-04-08T02:04:35;11.80;;;6.90;;
3193;SDS011;1608;50.860;13.466;2023-04-08T02:07:03;11.03;;;6.07;;
3193;SDS011;1608;50.860;13.466;2023-04-08T02:09:31;11.03;;;6.50;;
3193;SDS011;1608;50.860;13.466;2023-04-08T02:11:58;9.07;;;6.13;;
3193;SDS011;1608;50.860;13.466;2023-04-08T02:14:25;13.30;;;6.93;;
3193;SDS011;1608;50.860;13.466;2023-04-08T02:16:53;15.77;;;6.60;;
3193;SDS011;1608;50.860;13.466;2023-04-08T02:19:28;11.40;;;6.53;;
3193;SDS011;1608;50.860;13.466;2023-04-08T02:21:58;18.80;;;6.90;;
3193;SDS011;1608;50.860;13.466;2023-04-08T02:24:30;16.50;;;7.70;;
3193;SDS011;1608;50.860;13.466;2023-04-08T02:26:59;10.90;;;6.30;;
3193;SDS011;1608;50.860;13.466;2023-04-08T02:29:28;10.50;;;5.90;;
3193;SDS011;1608;50.860;13.466;2023-04-08T02:31:56;15.47;;;7.07;;
3193;SDS011;1608;50.860;13.466;2023-04-08T02:34:23;14.87;;;6.57;;
3193;SDS011;1608;50.860;13.466;2023-04-08T02:36:52;9.40;;;6.10;;
3193;SDS011;1608;50.860;13.466;2023-04-08T02:39:19;8.73;;;5.23;;
3193;SDS011;1608;50.860;13.466;2023-04-08T02:41:46;14.43;;;7.13;;
3193;SDS011;1608;50.860;13.466;2023-04-08T02:44:13;11.53;;;6.20;;
3193;SDS011;1608;50.860;13.466;2023-04-08T02:46:39;8.93;;;6.37;;
3193;SDS011;1608;50.860;13.466;2023-04-08T02:49:06;9.47;;;7.10;;
3193;SDS011;1608;50.860;13.466;2023-04-08T02:51:33;10.17;;;5.47;;
3193;SDS011;1608;50.860;13.466;2023-04-08T02:54:01;12.27;;;7.27;;
3193;SDS011;1608;50.860;13.466;2023-04-08T02:56:28;8.20;;;5.43;;
3193;SDS011;1608;50.860;13.466;2023-04-08T02:58:55;14.47;;;6.73;;
3193;SDS011;1608;50.860;13.466;2023-04-08T03:01:21;8.70;;;4.23;;
3193;SDS011;1608;50.860;13.466;2023-04-08T03:03:48;7.07;;;4.30;;
3193;SDS011;1608;50.860;13.466;2023-04-08T03:06:15;5.83;;;4.80;;
3193;SDS011;1608;50.860;13.466;2023-04-08T03:08:42;8.70;;;3.87;;
3193;SDS011;1608;50.860;13.466;2023-04-08T03:11:10;6.33;;;4.40;;
3193;SDS011;1608;50.860;13.466;2023-04-08T03:13:37;6.23;;;3.87;;
3193;SDS011;1608;50.860;13.466;2023-04-08T03:16:04;5.33;;;3.50;;
3193;SDS011;1608;50.860;13.466;2023-04-08T03:18:32;5.53;;;3.20;;
3193;SDS011;1608;50.860;13.466;2023-04-08T03:20:59;4.70;;;2.57;;
3193;SDS011;1608;50.860;13.466;2023-04-08T03:23:27;6.90;;;3.10;;
3193;SDS011;1608;50.860;13.466;2023-04-08T03:25:54;4.00;;;3.27;;
3193;SDS011;1608;50.860;13.466;2023-04-08T03:28:22;4.53;;;2.97;;
3193;SDS011;1608;50.860;13.466;2023-04-08T03:30:49;4.27;;;2.80;;
3193;SDS011;1608;50.860;13.466;2023-04-08T03:33:15;4.40;;;3.10;;
3193;SDS011;1608;50.860;13.466;2023-04-08T03:35:42;5.07;;;3.07;;
3193;SDS011;1608;50.860;13.466;2023-04-08T03:38:09;4.83;;;3.30;;
3193;SDS011;1608;50.860;13.466;2023-04-08T03:40:36;3.40;;;2.70;;
3193;SDS011;1608;50.860;13.466;2023-04-08T03:43:02;5.70;;;3.27;;
3193;SDS011;1608;50.860;13.466;2023-04-08T03:45:32;7.80;;;3.80;;
3193;SDS011;1608;50.860;13.466;2023-04-08T03:47:58;5.13;;;3.13;;
3193;SDS011;1608;50.860;13.466;2023-04-08T03:50:25;6.03;;;3.33;;
3193;SDS011;1608;50.860;13.466;2023-04-08T03:52:52;5.43;;;3.10;;
3193;SDS011;1608;50.860;13.466;2023-04-08T03:55:19;6.70;;;3.63;;
3193;SDS011;1608;50.860;13.466;2023-04-08T03:57:46;6.83;;;3.53;;
3193;SDS011;1608;50.860;13.466;2023-04-08T04:00:13;4.97;;;3.70;;
3193;SDS011;1608;50.860;13.466;2023-04-08T04:02:41;5.80;;;3.10;;
3193;SDS011;1608;50.860;13.466;2023-04-08T04:05:08;4.43;;;2.37;;
3193;SDS011;1608;50.860;13.466;2023-04-08T04:07:35;5.60;;;3.10;;
3193;SDS011;1608;50.860;13.466;2023-04-08T04:10:02;2.67;;;2.10;;
3193;SDS011;1608;50.860;13.466;2023-04-08T04:12:29;4.10;;;2.57;;
3193;SDS011;1608;50.860;13.466;2023-04-08T04:14:56;5.07;;;2.70;;
3193;SDS011;1608;50.860;13.466;2023-04-08T04:17:23;4.53;;;2.70;;
3193;SDS011;1608;50.860;13.466;2023-04-08T04:19:51;8.93;;;2.80;;
3193;SDS011;1608;50.860;13.466;2023-04-08T04:22:18;4.37;;;2.50;;
3193;SDS011;1608;50.860;13.466;2023-04-08T04:24:46;6.63;;;2.50;;
3193;SDS011;1608;50.860;13.466;2023-04-08T04:27:13;2.90;;;2.63;;
3193;SDS011;1608;50.860;13.466;2023-04-08T04:29:41;4.50;;;2.57;;
3193;SDS011;1608;50.860;13.466;2023-04-08T04:32:08;3.53;;;2.23;;
3193;SDS011;1608;50.860;13.466;2023-04-08T04:34:35;3.80;;;2.13;;
3193;SDS011;1608;50.860;13.466;2023-04-08T04:37:03;3.47;;;1.70;;
3193;SDS011;1608;50.860;13.466;2023-04-08T04:39:30;5.97;;;2.67;;
3193;SDS011;1608;50.860;13.466;2023-04-08T04:41:57;5.10;;;3.63;;
3193;SDS011;1608;50.860;13.466;2023-04-08T04:44:24;6.30;;;3.43;;
3193;SDS011;1608;50.860;13.466;2023-04-08T04:46:51;3.30;;;2.17;;
3193;SDS011;1608;50.860;13.466;2023-04-08T04:49:18;6.40;;;2.80;;
3193;SDS011;1608;50.860;13.466;2023-04-08T04:51:44;7.10;;;3.73;;
3193;SDS011;1608;50.860;13.466;2023-04-08T04:54:12;7.83;;;4.13;;
3193;SDS011;1608;50.860;13.466;2023-04-08T04:56:39;6.63;;;3.53;;
3193;SDS011;1608;50.860;13.466;2023-04-08T04:59:06;5.03;;;3.07;;
3193;SDS011;1608;50.860;13.466;2023-04-08T05:01:33;2.07;;;1.63;;
3193;SDS011;1608;50.860;13.466;2023-04-08T05:04:00;2.70;;;1.60;;
3193;SDS011;1608;50.860;13.466;2023-04-08T05:06:27;7.90;;;2.60;;
3193;SDS011;1608;50.860;13.466;2023-04-08T05:08:54;4.53;;;2.60;;
3193;SDS011;1608;50.860;13.466;2023-04-08T05:11:22;4.23;;;3.00;;
3193;SDS011;1608;50.860;13.466;2023-04-08T05:13:49;3.93;;;2.13;;
3193;SDS011;1608;50.860;13.466;2023-04-08T05:16:15;10.00;;;4.73;;
3193;SDS011;1608;50.860;13.466;2023-04-08T05:18:42;12.87;;;5.90;;
3193;SDS011;1608;50.860;13.466;2023-04-08T05:21:09;28.20;;;7.30;;
3193;SDS011;1608;50.860;13.466;2023-04-08T05:23:36;16.83;;;6.37;;
3193;SDS011;1608;50.860;13.466;2023-04-08T05:26:05;4.77;;;3.73;;
3193;SDS011;1608;50.860;13.466;2023-04-08T05:28:33;14.07;;;7.10;;
3193;SDS011;1608;50.860;13.466;2023-04-08T05:31:00;15.00;;;7.43;;
3193;SDS011;1608;50.860;13.466;2023-04-08T05:33:27;12.07;;;4.53;;
3193;SDS011;1608;50.860;13.466;2023-04-08T05:35:54;4.53;;;2.50;;
3193;SDS011;1608;50.860;13.466;2023-04-08T05:38:21;13.50;;;3.83;;
3193;SDS011;1608;50.860;13.466;2023-04-08T05:40:48;10.03;;;3.63;;
3193;SDS011;1608;50.860;13.466;2023-04-08T05:43:15;5.27;;;3.37;;
3193;SDS011;1608;50.860;13.466;2023-04-08T05:45:44;21.87;;;6.93;;
3193;SDS011;1608;50.860;13.466;2023-04-08T05:48:10;10.20;;;5.63;;
3193;SDS011;1608;50.860;13.466;2023-04-08T05:50:37;7.73;;;3.80;;
3193;SDS011;1608;50.860;13.466;2023-04-08T05:53:04;9.30;;;3.07;;
3193;SDS011;1608;50.860;13.466;2023-04-08T05:55:31;8.00;;;3.50;;
3193;SDS011;1608;50.860;13.466;2023-04-08T05:57:58;4.23;;;3.40;;
3193;SDS011;1608;50.860;13.466;2023-04-08T06:00:24;5.90;;;3.93;;
3193;SDS011;1608;50.860;13.466;2023-04-08T06:02:53;6.87;;;4.43;;
3193;SDS011;1608;50.860;13.466;2023-04-08T06:05:20;5.93;;;2.80;;
3193;SDS011;1608;50.860;13.466;2023-04-08T06:07:47;5.50;;;2.90;;
3193;SDS011;1608;50.860;13.466;2023-04-08T06:10:14;9.13;;;2.97;;
3193;SDS011;1608;50.860;13.466;2023-04-08T06:12:41;6.00;;;3.23;;
3193;SDS011;1608;50.860;13.466;2023-04-08T06:15:08;4.70;;;3.30;;
3193;SDS011;1608;50.860;13.466;2023-04-08T06:17:35;7.73;;;3.33;;
3193;SDS011;1608;50.860;13.466;2023-04-08T06:20:04;3.23;;;2.90;;
3193;SDS011;1608;50.860;13.466;2023-04-08T06:22:33;10.03;;;5.77;;
3193;SDS011;1608;50.860;13.466;2023-04-08T06:25:00;6.60;;;3.73;;
3193;SDS011;1608;50.860;13.466;2023-04-08T06:27:27;6.00;;;4.50;;
3193;SDS011;1608;50.860;13.466;2023-04-08T06:29:54;4.80;;;3.47;;
3193;SDS011;1608;50.860;13.466;2023-04-08T06:32:21;7.10;;;3.87;;
3193;SDS011;1608;50.860;13.466;2023-04-08T06:34:48;4.83;;;3.67;;
3193;SDS011;1608;50.860;13.466;2023-04-08T06:37:16;9.93;;;5.10;;
3193;SDS011;1608;50.860;13.466;2023-04-08T06:39:42;7.37;;;4.50;;
3193;SDS011;1608;50.860;13.466;2023-04-08T06:42:10;10.37;;;5.83;;
3193;SDS011;1608;50.860;13.466;2023-04-08T06:44:36;9.33;;;5.03;;
3193;SDS011;1608;50.860;13.466;2023-04-08T06:47:03;10.90;;;4.70;;
3193;SDS011;1608;50.860;13.466;2023-04-08T06:49:30;6.67;;;3.73;;
3193;SDS011;1608;50.860;13.466;2023-04-08T06:51:57;8.37;;;3.93;;
3193;SDS011;1608;50.860;13.466;2023-04-08T06:54:25;33.57;;;5.63;;
3193;SDS011;1608;50.860;13.466;2023-04-08T06:56:52;6.27;;;4.30;;
3193;SDS011;1608;50.860;13.466;2023-04-08T06:59:19;4.00;;;2.77;;
3193;SDS011;1608;50.860;13.466;2023-04-08T07:01:46;4.97;;;2.80;;
3193;SDS011;1608;50.860;13.466;2023-04-08T07:04:12;5.13;;;3.37;;
3193;SDS011;1608;50.860;13.466;2023-04-08T07:06:39;10.37;;;5.53;;
3193;SDS011;1608;50.860;13.466;2023-04-08T07:09:06;5.53;;;3.90;;
3193;SDS011;1608;50.860;13.466;2023-04-08T07:11:34;2.70;;;2.43;;
3193;SDS011;1608;50.860;13.466;2023-04-08T07:14:01;7.30;;;5.20;;
3193;SDS011;1608;50.860;13.466;2023-04-08T07:16:28;5.57;;;3.87;;
3193;SDS011;1608;50.860;13.466;2023-04-08T07:18:54;4.47;;;2.73;;
3193;SDS011;1608;50.860;13.466;2023-04-08T07:21:22;12.40;;;7.10;;
3193;SDS011;1608;50.860;13.466;2023-04-08T07:23:48;10.50;;;7.17;;
3193;SDS011;1608;50.860;13.466;2023-04-08T07:26:15;4.47;;;3.10;;
3193;SDS011;1608;50.860;13.466;2023-04-08T07:28:44;4.20;;;3.40;;
3193;SDS011;1608;50.860;13.466;2023-04-08T07:31:11;6.17;;;4.67;;
3193;SDS011;1608;50.860;13.466;2023-04-08T07:33:39;8.50;;;4.43;;
3193;SDS011;1608;50.860;13.466;2023-04-08T07:36:07;10.03;;;4.70;;
3193;SDS011;1608;50.860;13.466;2023-04-08T07:38:34;5.70;;;3.67;;
3193;SDS011;1608;50.860;13.466;2023-04-08T07:41:01;12.33;;;5.43;;
3193;SDS011;1608;50.860;13.466;2023-04-08T07:43:29;13.37;;;8.20;;
3193;SDS011;1608;50.860;13.466;2023-04-08T07:46:00;8.77;;;6.60;;
3193;SDS011;1608;50.860;13.466;2023-04-08T07:48:27;20.17;;;9.97;;
3193;SDS011;1608;50.860;13.466;2023-04-08T07:50:54;14.47;;;8.70;;
3193;SDS011;1608;50.860;13.466;2023-04-08T07:53:21;13.80;;;8.43;;
3193;SDS011;1608;50.860;13.466;2023-04-08T07:55:50;20.67;;;9.83;;
3193;SDS011;1608;50.860;13.466;2023-04-08T07:58:17;13.83;;;7.07;;
3193;SDS011;1608;50.860;13.466;2023-04-08T08:00:44;11.00;;;6.63;;
3193;SDS011;1608;50.860;13.466;2023-04-08T08:03:12;16.37;;;8.10;;
3193;SDS011;1608;50.860;13.466;2023-04-08T08:05:39;10.60;;;5.90;;
3193;SDS011;1608;50.860;13.466;2023-04-08T08:08:06;13.20;;;9.13;;
3193;SDS011;1608;50.860;13.466;2023-04-08T08:10:35;15.40;;;9.03;;
3193;SDS011;1608;50.860;13.466;2023-04-08T08:13:02;15.40;;;8.90;;
3193;SDS011;1608;50.860;13.466;2023-04-08T08:15:29;14.63;;;8.97;;
3193;SDS011;1608;50.860;13.466;2023-04-08T08:17:56;17.03;;;9.53;;
3193;SDS011;1608;50.860;13.466;2023-04-08T08:20:24;15.50;;;10.03;;
3193;SDS011;1608;50.860;13.466;2023-04-08T08:22:51;17.90;;;8.00;;
3193;SDS011;1608;50.860;13.466;2023-04-08T08:25:18;17.90;;;11.57;;
3193;SDS011;1608;50.860;13.466;2023-04-08T08:27:44;18.97;;;10.50;;
3193;SDS011;1608;50.860;13.466;2023-04-08T08:30:11;15.73;;;9.40;;
3193;SDS011;1608;50.860;13.466;2023-04-08T08:32:38;21.07;;;10.50;;
3193;SDS011;1608;50.860;13.466;2023-04-08T08:35:05;14.00;;;8.80;;
3193;SDS011;1608;50.860;13.466;2023-04-08T08:37:34;15.03;;;8.10;;
3193;SDS011;1608;50.860;13.466;2023-04-08T08:40:01;11.37;;;6.30;;
3193;SDS011;1608;50.860;13.466;2023-04-08T08:42:27;13.43;;;7.83;;
3193;SDS011;1608;50.860;13.466;2023-04-08T08:44:54;8.67;;;6.20;;
3193;SDS011;1608;50.860;13.466;2023-04-08T08:47:21;9.83;;;6.30;;
3193;SDS011;1608;50.860;13.466;2023-04-08T08:49:48;17.27;;;8.37;;
3193;SDS011;1608;50.860;13.466;2023-04-08T08:52:15;17.30;;;9.10;;
3193;SDS011;1608;50.860;13.466;2023-04-08T08:54:43;14.30;;;7.67;;
3193;SDS011;1608;50.860;13.466;2023-04-08T08:57:17;13.83;;;7.53;;
3193;SDS011;1608;50.860;13.466;2023-04-08T08:59:44;9.93;;;6.23;;
3193;SDS011;1608;50.860;13.466;2023-04-08T09:02:24;13.60;;;9.37;;
3193;SDS011;1608;50.860;13.466;2023-04-08T09:04:56;11.93;;;7.37;;
3193;SDS011;1608;50.860;13.466;2023-04-08T09:07:24;13.90;;;6.70;;
3193;SDS011;1608;50.860;13.466;2023-04-08T09:09:53;7.87;;;4.90;;
3193;SDS011;1608;50.860;13.466;2023-04-08T09:12:21;7.50;;;5.20;;
3193;SDS011;1608;50.860;13.466;2023-04-08T09:14:48;7.53;;;5.93;;
3193;SDS011;1608;50.860;13.466;2023-04-08T09:17:15;9.47;;;5.97;;
3193;SDS011;1608;50.860;13.466;2023-04-08T09:20:06;11.77;;;7.10;;
3193;SDS011;1608;50.860;13.466;2023-04-08T09:25:25;10.20;;;7.10;;
3193;SDS011;1608;50.860;13.466;2023-04-08T09:27:53;13.40;;;8.00;;
3193;SDS011;1608;50.860;13.466;2023-04-08T09:30:21;7.77;;;5.50;;
3193;SDS011;1608;50.860;13.466;2023-04-08T09:32:49;11.73;;;7.87;;
3193;SDS011;1608;50.860;13.466;2023-04-08T09:35:17;13.33;;;9.63;;
3193;SDS011;1608;50.860;13.466;2023-04-08T09:37:44;10.70;;;5.83;;
3193;SDS011;1608;50.860;13.466;2023-04-08T09:40:12;20.87;;;10.63;;
3193;SDS011;1608;50.860;13.466;2023-04-08T09:42:43;11.97;;;8.20;;
3193;SDS011;1608;50.860;13.466;2023-04-08T09:45:12;15.53;;;8.73;;
3193;SDS011;1608;50.860;13.466;2023-04-08T09:47:42;15.10;;;9.70;;
3193;SDS011;1608;50.860;13.466;2023-04-08T09:50:16;14.20;;;9.10;;
3193;SDS011;1608;50.860;13.466;2023-04-08T09:52:46;12.27;;;9.30;;
3193;SDS011;1608;50.860;13.466;2023-04-08T09:55:20;13.83;;;6.70;;
3193;SDS011;1608;50.860;13.466;2023-04-08T09:57:51;11.90;;;8.10;;
3193;SDS011;1608;50.860;13.466;2023-04-08T10:00:21;17.83;;;9.00;;
3193;SDS011;1608;50.860;13.466;2023-04-08T10:02:54;16.80;;;9.07;;
3193;SDS011;1608;50.860;13.466;2023-04-08T10:05:26;13.37;;;7.73;;
3193;SDS011;1608;50.860;13.466;2023-04-08T10:07:54;11.83;;;7.13;;
3193;SDS011;1608;50.860;13.466;2023-04-08T10:10:21;9.83;;;7.97;;
3193;SDS011;1608;50.860;13.466;2023-04-08T10:12:50;15.67;;;9.03;;
3193;SDS011;1608;50.860;13.466;2023-04-08T10:15:21;15.23;;;9.70;;
3193;SDS011;1608;50.860;13.466;2023-04-08T10:17:52;10.83;;;7.10;;
3193;SDS011;1608;50.860;13.466;2023-04-08T10:20:39;10.67;;;8.50;;
3193;SDS011;1608;50.860;13.466;2023-04-08T10:23:08;13.10;;;8.53;;
3193;SDS011;1608;50.860;13.466;2023-04-08T10:25:37;11.20;;;8.47;;
3193;SDS011;1608;50.860;13.466;2023-04-08T10:30:53;12.07;;;8.37;;
3193;SDS011;1608;50.860;13.466;2023-04-08T10:33:20;13.80;;;7.30;;
3193;SDS011;1608;50.860;13.466;2023-04-08T10:35:51;13.07;;;7.83;;
3193;SDS011;1608;50.860;13.466;2023-04-08T10:38:19;12.37;;;6.83;;
3193;SDS011;1608;50.860;13.466;2023-04-08T10:40:47;11.33;;;7.30;;
3193;SDS011;1608;50.860;13.466;2023-04-08T10:43:16;15.60;;;9.87;;
3193;SDS011;1608;50.860;13.466;2023-04-08T10:45:44;15.47;;;8.40;;
3193;SDS011;1608;50.860;13.466;2023-04-08T10:48:16;13.33;;;8.57;;
3193;SDS011;1608;50.860;13.466;2023-04-08T10:50:44;13.10;;;8.17;;
3193;SDS011;1608;50.860;13.466;2023-04-08T10:53:22;14.17;;;7.83;;
3193;SDS011;1608;50.860;13.466;2023-04-08T10:55:51;16.63;;;10.33;;
3193;SDS011;1608;50.860;13.466;2023-04-08T10:58:18;13.40;;;8.90;;
3193;SDS011;1608;50.860;13.466;2023-04-08T11:00:46;14.60;;;8.33;;
3193;SDS011;1608;50.860;13.466;2023-04-08T11:03:13;15.30;;;8.10;;
3193;SDS011;1608;50.860;13.466;2023-04-08T11:05:40;14.20;;;9.87;;
3193;SDS011;1608;50.860;13.466;2023-04-08T11:08:07;14.43;;;9.17;;
3193;SDS011;1608;50.860;13.466;2023-04-08T11:10:36;15.97;;;8.63;;
3193;SDS011;1608;50.860;13.466;2023-04-08T11:13:05;10.03;;;6.83;;
3193;SDS011;1608;50.860;13.466;2023-04-08T11:15:34;18.03;;;8.10;;
3193;SDS011;1608;50.860;13.466;2023-04-08T11:18:02;15.73;;;10.63;;
3193;SDS011;1608;50.860;13.466;2023-04-08T11:20:31;17.97;;;11.60;;
3193;SDS011;1608;50.860;13.466;2023-04-08T11:23:00;16.17;;;9.53;;
3193;SDS011;1608;50.860;13.466;2023-04-08T11:25:27;15.23;;;8.70;;
3193;SDS011;1608;50.860;13.466;2023-04-08T11:27:54;22.07;;;13.80;;
3193;SDS011;1608;50.860;13.466;2023-04-08T11:30:21;20.43;;;11.30;;
3193;SDS011;1608;50.860;13.466;2023-04-08T11:32:49;13.73;;;7.13;;
3193;SDS011;1608;50.860;13.466;2023-04-08T11:35:17;20.40;;;11.27;;
3193;SDS011;1608;50.860;13.466;2023-04-08T11:37:45;17.03;;;8.23;;
3193;SDS011;1608;50.860;13.466;2023-04-08T11:40:18;20.57;;;9.87;;
3193;SDS011;1608;50.860;13.466;2023-04-08T11:42:45;18.30;;;8.60;;
3193;SDS011;1608;50.860;13.466;2023-04-08T11:45:13;16.23;;;9.80;;
3193;SDS011;1608;50.860;13.466;2023-04-08T11:47:41;20.13;;;11.60;;
3193;SDS011;1608;50.860;13.466;2023-04-08T11:50:09;16.43;;;10.63;;
3193;SDS011;1608;50.860;13.466;2023-04-08T11:52:41;17.23;;;9.67;;
3193;SDS011;1608;50.860;13.466;2023-04-08T11:55:21;17.40;;;8.70;;
3193;SDS011;1608;50.860;13.466;2023-04-08T11:57:48;19.23;;;9.80;;
3193;SDS011;1608;50.860;13.466;2023-04-08T12:00:16;13.43;;;7.73;;
3193;SDS011;1608;50.860;13.466;2023-04-08T12:02:44;17.10;;;10.00;;
3193;SDS011;1608;50.860;13.466;2023-04-08T12:05:11;12.20;;;7.80;;
3193;SDS011;1608;50.860;13.466;2023-04-08T12:07:38;12.50;;;7.40;;
3193;SDS011;1608;50.860;13.466;2023-04-08T12:10:07;21.37;;;10.47;;
3193;SDS011;1608;50.860;13.466;2023-04-08T12:12:34;18.90;;;11.27;;
3193;SDS011;1608;50.860;13.466;2023-04-08T12:15:01;13.90;;;9.03;;
3193;SDS011;1608;50.860;13.466;2023-04-08T12:17:28;10.60;;;6.80;;
3193;SDS011;1608;50.860;13.466;2023-04-08T12:19:55;17.90;;;11.47;;
3193;SDS011;1608;50.860;13.466;2023-04-08T12:22:22;23.07;;;10.73;;
3193;SDS011;1608;50.860;13.466;2023-04-08T12:24:50;12.53;;;7.97;;
3193;SDS011;1608;50.860;13.466;2023-04-08T12:27:17;17.80;;;10.60;;
3193;SDS011;1608;50.860;13.466;2023-04-08T12:29:44;17.60;;;10.67;;
3193;SDS011;1608;50.860;13.466;2023-04-08T12:32:13;21.03;;;12.00;;
3193;SDS011;1608;50.860;13.466;2023-04-08T12:34:40;14.63;;;10.87;;
3193;SDS011;1608;50.860;13.466;2023-04-08T12:37:06;17.83;;;10.77;;
3193;SDS011;1608;50.860;13.466;2023-04-08T12:39:33;23.87;;;11.67;;
3193;SDS011;1608;50.860;13.466;2023-04-08T12:42:02;19.70;;;12.23;;
3193;SDS011;1608;50.860;13.466;2023-04-08T12:44:29;26.10;;;13.23;;
3193;SDS011;1608;50.860;13.466;2023-04-08T12:46:56;20.20;;;11.57;;
3193;SDS011;1608;50.860;13.466;2023-04-08T12:49:23;20.07;;;12.20;;
3193;SDS011;1608;50.860;13.466;2023-04-08T12:51:50;27.73;;;14.07;;
3193;SDS011;1608;50.860;13.466;2023-04-08T12:54:17;24.77;;;13.07;;
3193;SDS011;1608;50.860;13.466;2023-04-08T12:56:44;22.63;;;13.83;;
3193;SDS011;1608;50.860;13.466;2023-04-08T12:59:14;20.17;;;11.27;;
3193;SDS011;1608;50.860;13.466;2023-04-08T13:01:41;23.90;;;14.13;;
3193;SDS011;1608;50.860;13.466;2023-04-08T13:04:07;15.50;;;10.80;;
3193;SDS011;1608;50.860;13.466;2023-04-08T13:06:34;23.87;;;13.70;;
3193;SDS011;1608;50.860;13.466;2023-04-08T13:09:01;24.40;;;14.50;;
3193;SDS011;1608;50.860;13.466;2023-04-08T13:11:28;25.63;;;15.43;;
3193;SDS011;1608;50.860;13.466;2023-04-08T13:13:55;28.90;;;15.70;;
3193;SDS011;1608;50.860;13.466;2023-04-08T13:16:23;18.83;;;13.20;;
3193;SDS011;1608;50.860;13.466;2023-04-08T13:18:50;20.87;;;12.70;;
3193;SDS011;1608;50.860;13.466;2023-04-08T13:21:17;23.77;;;13.03;;
3193;SDS011;1608;50.860;13.466;2023-04-08T13:23:44;27.27;;;14.80;;
3193;SDS011;1608;50.860;13.466;2023-04-08T13:26:11;25.57;;;16.20;;
3193;SDS011;1608;50.860;13.466;2023-04-08T13:28:38;25.47;;;14.13;;
3193;SDS011;1608;50.860;13.466;2023-04-08T13:31:05;17.67;;;10.27;;
3193;SDS011;1608;50.860;13.466;2023-04-08T13:33:33;28.47;;;15.83;;
3193;SDS011;1608;50.860;13.466;2023-04-08T13:36:00;20.70;;;12.90;;
3193;SDS011;1608;50.860;13.466;2023-04-08T13:38:27;28.33;;;15.40;;
3193;SDS011;1608;50.860;13.466;2023-04-08T13:40:54;27.20;;;13.83;;
3193;SDS011;1608;50.860;13.466;2023-04-08T13:43:20;27.60;;;16.63;;
3193;SDS011;1608;50.860;13.466;2023-04-08T13:45:47;28.77;;;19.10;;
3193;SDS011;1608;50.860;13.466;2023-04-08T13:48:14;24.00;;;13.60;;
3193;SDS011;1608;50.860;13.466;2023-04-08T13:50:42;29.70;;;14.17;;
3193;SDS011;1608;50.860;13.466;2023-04-08T13:53:09;23.70;;;13.00;;
3193;SDS011;1608;50.860;13.466;2023-04-08T13:55:36;31.90;;;17.57;;
3193;SDS011;1608;50.860;13.466;2023-04-08T13:58:03;27.73;;;15.43;;
3193;SDS011;1608;50.860;13.466;2023-04-08T14:00:30;29.20;;;14.40;;
3193;SDS011;1608;50.860;13.466;2023-04-08T14:02:56;38.47;;;21.00;;
3193;SDS011;1608;50.860;13.466;2023-04-08T14:05:23;33.10;;;19.70;;
3193;SDS011;1608;50.860;13.466;2023-04-08T14:07:51;33.33;;;16.63;;
3193;SDS011;1608;50.860;13.466;2023-04-08T14:10:18;32.70;;;17.60;;
3193;SDS011;1608;50.860;13.466;2023-04-08T14:12:45;33.63;;;18.60;;
3193;SDS011;1608;50.860;13.466;2023-04-08T14:15:12;25.47;;;11.77;;
3193;SDS011;1608;50.860;13.466;2023-04-08T14:17:39;34.50;;;19.13;;
3193;SDS011;1608;50.860;13.466;2023-04-08T14:20:06;35.53;;;20.13;;
3193;SDS011;1608;50.860;13.466;2023-04-08T14:22:33;35.80;;;20.30;;
3193;SDS011;1608;50.860;13.466;2023-04-08T14:25:01;31.43;;;20.07;;
3193;SDS011;1608;50.860;13.466;2023-04-08T14:27:28;30.10;;;18.93;;
3193;SDS011;1608;50.860;13.466;2023-04-08T14:29:55;32.03;;;18.97;;
3193;SDS011;1608;50.860;13.466;2023-04-08T14:32:22;34.80;;;16.47;;
3193;SDS011;1608;50.860;13.466;2023-04-08T14:34:48;38.50;;;19.40;;
3193;SDS011;1608;50.860;13.466;2023-04-08T14:37:15;30.10;;;15.90;;
3193;SDS011;1608;50.860;13.466;2023-04-08T14:39:42;27.33;;;17.23;;
3193;SDS011;1608;50.860;13.466;2023-04-08T14:42:11;19.30;;;10.40;;
3193;SDS011;1608;50.860;13.466;2023-04-08T14:44:40;30.20;;;15.67;;
3193;SDS011;1608;50.860;13.466;2023-04-08T14:47:08;32.60;;;16.30;;
3193;SDS011;1608;50.860;13.466;2023-04-08T14:49:36;23.50;;;14.40;;
3193;SDS011;1608;50.860;13.466;2023-04-08T14:52:03;15.40;;;11.80;;
3193;SDS011;1608;50.860;13.466;2023-04-08T14:54:29;24.10;;;15.10;;
3193;SDS011;1608;50.860;13.466;2023-04-08T14:56:56;24.80;;;13.93;;